Time;durP1;ratioP1;P1;durP2;ratioP2;P2;SDS_P1;SDS_P2;PMS_P1;PMS_P2;Temp;Humidity;BMP_temperature;BMP_pressure;BME280_temperature;BME280_humidity;BME280_pressure;Samples;Min_cycle;Max_cycle;Signal;HPM_P1;HPM_P2
2022/06/29 00:00:44;;;;;;;4.85;4.45;;;25.30;99.90;;;;;;5054180;28;20225;-85
2022/06/29 00:03:12;;;;;;;4.82;4.30;;;25.20;99.90;;;;;;5054090;28;20237;-84
2022/06/29 00:05:41;;;;;;;5.13;3.60;;;25.20;99.90;;;;;;5054061;28;20248;-84
2022/06/29 00:08:09;;;;;;;4.63;4.22;;;25.20;99.90;;;;;;5054020;28;20221;-84
2022/06/29 00:10:39;;;;;;;4.68;4.13;;;25.10;99.90;;;;;;5053758;28;20259;-85
2022/06/29 00:13:08;;;;;;;5.40;4.85;;;25.10;99.90;;;;;;5054157;28;20317;-84
2022/06/29 00:15:37;;;;;;;4.35;4.05;;;25.00;99.90;;;;;;5054085;28;20205;-85
2022/06/29 00:18:06;;;;;;;4.53;4.22;;;24.90;99.90;;;;;;5053360;28;20222;-85
2022/06/29 00:20:35;;;;;;;5.20;4.32;;;24.90;99.90;;;;;;5052887;28;20240;-85
2022/06/29 00:23:03;;;;;;;5.00;4.35;;;24.90;99.90;;;;;;5053672;28;20238;-85
2022/06/29 00:25:31;;;;;;;3.97;3.72;;;24.80;99.90;;;;;;5053477;28;20236;-85
2022/06/29 00:28:01;;;;;;;3.85;3.55;;;24.80;99.90;;;;;;5053384;28;20244;-85
2022/06/29 00:30:30;;;;;;;4.55;4.15;;;24.70;99.90;;;;;;5053162;28;20237;-85
2022/06/29 00:32:58;;;;;;;4.13;3.83;;;24.70;99.90;;;;;;5053322;28;20229;-85
2022/06/29 00:35:26;;;;;;;6.00;4.05;;;24.70;99.90;;;;;;5053682;28;20249;-85
2022/06/29 00:37:55;;;;;;;4.88;4.47;;;24.70;99.90;;;;;;5053341;28;20252;-88
2022/06/29 00:40:23;;;;;;;4.15;3.80;;;24.70;99.90;;;;;;5052871;28;20264;-84
2022/06/29 00:42:51;;;;;;;21.70;4.10;;;24.70;99.90;;;;;;5053339;28;20249;-83
2022/06/29 00:45:21;;;;;;;4.05;3.75;;;24.70;99.90;;;;;;5053256;28;20201;-83
2022/06/29 00:47:49;;;;;;;5.00;4.60;;;24.70;99.90;;;;;;5053399;28;20197;-83
2022/06/29 00:50:18;;;;;;;4.45;4.15;;;24.70;99.90;;;;;;5053075;28;20293;-84
2022/06/29 00:52:47;;;;;;;6.22;5.30;;;24.70;99.90;;;;;;5053203;28;20261;-83
2022/06/29 00:55:19;;;;;;;4.72;4.35;;;24.70;99.90;;;;;;5053129;28;20248;-83
2022/06/29 00:57:51;;;;;;;5.00;4.60;;;24.70;99.90;;;;;;5052787;28;20317;-84
2022/06/29 01:00:21;;;;;;;4.05;3.65;;;24.70;99.90;;;;;;5052853;28;20241;-84
2022/06/29 01:02:49;;;;;;;5.20;4.63;;;24.70;99.90;;;;;;5053238;28;20337;-84
2022/06/29 01:05:18;;;;;;;5.55;4.80;;;24.60;99.90;;;;;;5053080;28;20202;-84
2022/06/29 01:07:46;;;;;;;5.90;4.85;;;24.60;99.90;;;;;;5052717;28;20279;-83
2022/06/29 01:10:14;;;;;;;4.15;3.83;;;24.50;99.90;;;;;;5052665;28;20233;-84
2022/06/29 01:12:43;;;;;;;4.53;4.13;;;24.50;99.90;;;;;;5052852;28;20249;-83
2022/06/29 01:15:12;;;;;;;5.20;4.80;;;24.50;99.90;;;;;;5053025;28;20205;-83
2022/06/29 01:17:42;;;;;;;5.32;4.80;;;24.50;99.90;;;;;;5052441;28;20325;-84
2022/06/29 01:20:11;;;;;;;5.45;4.78;;;24.50;99.90;;;;;;5052841;28;20272;-83
2022/06/29 01:22:41;;;;;;;5.03;4.57;;;24.50;99.90;;;;;;5052535;28;20312;-83
2022/06/29 01:25:10;;;;;;;6.45;5.35;;;24.30;99.90;;;;;;5053023;28;20205;-83
2022/06/29 01:27:39;;;;;;;5.32;4.78;;;24.20;99.90;;;;;;5052669;28;20281;-83
2022/06/29 01:30:09;;;;;;;4.90;4.45;;;24.00;99.90;;;;;;5052403;28;20240;-84
2022/06/29 01:32:38;;;;;;;4.93;4.53;;;23.80;99.90;;;;;;5056426;28;20229;-83
2022/06/29 01:35:10;;;;;;;5.65;5.15;;;23.70;99.90;;;;;;5056912;28;20271;-83
2022/06/29 01:37:40;;;;;;;4.80;4.40;;;23.60;99.90;;;;;;5056646;28;20288;-83
2022/06/29 01:40:11;;;;;;;5.20;4.80;;;23.50;99.90;;;;;;5056870;28;20205;-83
2022/06/29 01:42:39;;;;;;;6.85;5.15;;;23.40;99.90;;;;;;5056705;28;20316;-83
2022/06/29 01:45:09;;;;;;;5.18;4.78;;;23.30;99.90;;;;;;5056387;28;20215;-83
2022/06/29 01:47:37;;;;;;;5.05;4.75;;;23.30;99.90;;;;;;5057224;28;20213;-83
2022/06/29 01:50:06;;;;;;;5.40;4.22;;;23.20;99.90;;;;;;5056286;28;20288;-83
2022/06/29 01:52:34;;;;;;;4.78;4.40;;;23.30;99.90;;;;;;5056540;28;20252;-83
2022/06/29 01:55:05;;;;;;;9.65;5.57;;;23.30;99.90;;;;;;5056155;28;20244;-83
2022/06/29 01:57:33;;;;;;;6.97;5.80;;;23.30;99.90;;;;;;5056503;28;20233;-83
2022/06/29 02:00:02;;;;;;;5.03;4.63;;;23.20;99.90;;;;;;5056478;28;20249;-83
2022/06/29 02:02:30;;;;;;;5.05;4.65;;;23.30;99.90;;;;;;5055916;28;20255;-83
2022/06/29 02:04:58;;;;;;;6.03;5.43;;;23.20;99.90;;;;;;5056345;28;20237;-83
2022/06/29 02:07:27;;;;;;;5.70;5.07;;;23.10;99.90;;;;;;5056118;28;20209;-84
2022/06/29 02:09:55;;;;;;;5.60;5.10;;;23.10;99.90;;;;;;5055978;28;20290;-84
2022/06/29 02:12:25;;;;;;;5.70;5.18;;;23.20;99.90;;;;;;5055579;28;20281;-84
2022/06/29 02:14:54;;;;;;;5.55;5.05;;;23.10;99.90;;;;;;5056160;28;20218;-83
2022/06/29 02:17:22;;;;;;;8.23;5.85;;;23.10;99.90;;;;;;5055284;28;20265;-84
2022/06/29 02:19:51;;;;;;;5.85;5.18;;;23.20;99.90;;;;;;5055339;28;20308;-83
2022/06/29 02:22:19;;;;;;;5.70;4.75;;;23.20;99.90;;;;;;5055890;28;20308;-83
2022/06/29 02:24:49;;;;;;;5.45;4.97;;;23.20;99.90;;;;;;5056089;28;20280;-83
2022/06/29 02:27:17;;;;;;;6.10;5.63;;;23.20;99.90;;;;;;5055909;28;20214;-83
2022/06/29 02:29:47;;;;;;;5.00;4.60;;;23.20;99.90;;;;;;5055895;28;20279;-83
2022/06/29 02:35:01;;;;;;;5.15;4.65;;;23.30;99.90;;;;;;5055717;28;20292;-83
2022/06/29 02:37:29;;;;;;;4.50;4.20;;;23.30;99.90;;;;;;5055477;28;20206;-83
2022/06/29 02:39:58;;;;;;;12.30;5.03;;;23.30;99.90;;;;;;5055357;28;20218;-81
2022/06/29 02:42:27;;;;;;;4.93;4.53;;;23.30;99.90;;;;;;5054824;28;20305;-82
2022/06/29 02:45:17;;;;;;;5.53;5.00;;;23.30;99.90;;;;;;5055766;28;20206;-82
2022/06/29 02:47:49;;;;;;;4.05;3.75;;;23.40;99.90;;;;;;5055428;28;20201;-82
2022/06/29 02:50:17;;;;;;;4.65;4.32;;;23.50;99.90;;;;;;5055204;28;20217;-82
2022/06/29 02:52:46;;;;;;;5.35;4.85;;;23.50;99.90;;;;;;5055217;28;20313;-82
2022/06/29 02:55:14;;;;;;;5.93;4.95;;;23.50;99.90;;;;;;5055304;28;20293;-82
2022/06/29 02:57:42;;;;;;;5.68;5.18;;;23.50;99.90;;;;;;5055508;28;20206;-82
2022/06/29 03:00:12;;;;;;;5.47;4.97;;;23.40;99.90;;;;;;5054764;28;20261;-82
2022/06/29 03:02:42;;;;;;;7.28;4.80;;;23.40;99.90;;;;;;5055026;28;20316;-82
2022/06/29 03:05:11;;;;;;;5.22;4.75;;;23.40;99.90;;;;;;5055244;28;20222;-82
2022/06/29 03:07:39;;;;;;;5.20;4.80;;;23.40;99.90;;;;;;5055250;28;20256;-82
2022/06/29 03:10:08;;;;;;;5.40;4.90;;;23.50;99.90;;;;;;5054832;28;20281;-82
2022/06/29 03:12:36;;;;;;;4.78;4.47;;;23.40;99.90;;;;;;5054856;28;20293;-82
2022/06/29 03:15:06;;;;;;;4.82;4.43;;;23.50;99.90;;;;;;5054663;28;20285;-82
2022/06/29 03:17:34;;;;;;;6.68;5.50;;;23.50;99.90;;;;;;5054450;28;20220;-82
2022/06/29 03:20:05;;;;;;;5.35;4.95;;;23.50;99.90;;;;;;5054422;28;20233;-82
2022/06/29 03:22:34;;;;;;;5.82;5.32;;;23.50;99.90;;;;;;5055008;28;20272;-82
2022/06/29 03:25:02;;;;;;;5.70;5.10;;;23.50;99.90;;;;;;5054491;28;20209;-82
2022/06/29 03:27:32;;;;;;;6.03;5.43;;;23.60;99.90;;;;;;5054893;28;20209;-82
2022/06/29 03:30:01;;;;;;;5.55;5.10;;;23.60;99.90;;;;;;5054562;28;20217;-82
2022/06/29 03:32:29;;;;;;;5.25;4.78;;;23.60;99.90;;;;;;5054269;28;20271;-82
2022/06/29 03:34:57;;;;;;;5.45;4.95;;;23.60;99.90;;;;;;5054517;28;20206;-81
2022/06/29 03:37:27;;;;;;;5.35;4.93;;;23.60;99.90;;;;;;5054611;28;20206;-81
2022/06/29 03:39:56;;;;;;;6.72;4.55;;;23.70;99.90;;;;;;5054306;28;20224;-81
2022/06/29 03:42:24;;;;;;;6.07;5.47;;;23.70;99.90;;;;;;5054082;28;20236;-81
2022/06/29 03:44:54;;;;;;;6.28;5.78;;;23.70;99.90;;;;;;5054338;28;20206;-81
2022/06/29 03:47:25;;;;;;;5.68;5.15;;;23.80;99.90;;;;;;5054391;28;20214;-81
2022/06/29 03:49:53;;;;;;;4.95;4.53;;;23.80;99.90;;;;;;5054226;28;20206;-82
2022/06/29 03:52:21;;;;;;;4.60;4.30;;;23.80;99.90;;;;;;5054195;28;20229;-81
2022/06/29 03:54:51;;;;;;;5.25;4.75;;;23.90;99.90;;;;;;5053244;28;20202;-81
2022/06/29 03:57:19;;;;;;;5.20;4.72;;;23.80;99.90;;;;;;5054311;28;20209;-81
2022/06/29 03:59:48;;;;;;;4.70;4.40;;;23.80;99.90;;;;;;5053892;28;20308;-82
2022/06/29 04:02:16;;;;;;;5.20;4.80;;;23.80;99.90;;;;;;5053891;28;20299;-82
2022/06/29 04:04:45;;;;;;;5.80;5.25;;;23.80;99.90;;;;;;5054209;28;20210;-82
2022/06/29 04:07:13;;;;;;;5.55;5.05;;;23.80;99.90;;;;;;5054184;28;20293;-81
2022/06/29 04:09:41;;;;;;;8.45;4.90;;;23.90;99.90;;;;;;5053739;28;20281;-81
2022/06/29 04:12:11;;;;;;;5.07;4.70;;;23.90;99.90;;;;;;5053345;28;20225;-81
2022/06/29 04:14:40;;;;;;;5.50;5.00;;;23.90;99.90;;;;;;5053982;28;20205;-81
2022/06/29 04:17:08;;;;;;;5.80;5.30;;;23.90;99.90;;;;;;5053455;28;20298;-81
2022/06/29 04:19:36;;;;;;;5.57;5.10;;;24.00;99.90;;;;;;5053441;28;20234;-81
2022/06/29 04:22:04;;;;;;;4.82;4.43;;;24.00;99.90;;;;;;5053393;28;20260;-81
2022/06/29 04:24:43;;;;;;;4.65;4.25;;;24.10;99.90;;;;;;5053290;28;20202;-83
2022/06/29 04:27:13;;;;;;;5.15;4.72;;;24.10;99.90;;;;;;5054120;28;20289;-82
2022/06/29 04:29:41;;;;;;;5.85;5.35;;;24.10;99.90;;;;;;5053791;28;20277;-83
2022/06/29 04:32:10;;;;;;;4.97;4.57;;;24.10;99.90;;;;;;5053903;28;20268;-84
2022/06/29 04:34:41;;;;;;;6.05;5.43;;;24.20;99.90;;;;;;5054074;28;20202;-84
2022/06/29 04:37:09;;;;;;;7.28;5.47;;;24.20;99.90;;;;;;5053074;28;20289;-83
2022/06/29 04:39:38;;;;;;;5.57;5.05;;;24.20;99.90;;;;;;5053416;28;20297;-88
2022/06/29 04:42:06;;;;;;;5.65;5.15;;;24.20;99.90;;;;;;5054051;28;20225;-83
2022/06/29 04:44:35;;;;;;;6.63;5.57;;;24.30;99.90;;;;;;5053512;28;20281;-87
2022/06/29 04:47:04;;;;;;;5.40;4.90;;;24.30;99.90;;;;;;5049129;28;20292;-83
2022/06/29 04:49:33;;;;;;;6.03;5.40;;;24.40;99.90;;;;;;5053339;28;20201;-83
2022/06/29 04:52:01;;;;;;;6.45;5.85;;;24.50;99.90;;;;;;5053238;28;20281;-83
2022/06/29 04:54:29;;;;;;;6.40;5.85;;;24.60;99.90;;;;;;5053307;28;20210;-82
2022/06/29 04:56:57;;;;;;;6.78;6.28;;;24.70;99.90;;;;;;5053490;28;20229;-83
2022/06/29 04:59:26;;;;;;;6.60;5.45;;;24.80;99.90;;;;;;5052972;28;20244;-83
2022/06/29 05:01:57;;;;;;;5.80;5.30;;;24.90;99.90;;;;;;5052504;28;20221;-83
2022/06/29 05:04:26;;;;;;;6.43;5.65;;;24.90;99.90;;;;;;5052985;28;20285;-83
2022/06/29 05:06:54;;;;;;;6.72;6.03;;;25.00;99.90;;;;;;5052640;28;20233;-83
2022/06/29 05:09:22;;;;;;;8.05;6.05;;;25.10;99.90;;;;;;5053021;28;20205;-83
2022/06/29 05:11:50;;;;;;;7.03;6.50;;;25.10;99.90;;;;;;5052656;28;20244;-83
2022/06/29 05:14:19;;;;;;;6.88;6.18;;;25.20;99.90;;;;;;5052652;28;20306;-83
2022/06/29 05:16:47;;;;;;;6.38;5.55;;;25.10;99.90;;;;;;5052804;28;20265;-83
2022/06/29 05:19:17;;;;;;;5.93;5.32;;;25.20;99.90;;;;;;5053071;28;20232;-83
2022/06/29 05:21:45;;;;;;;6.95;6.30;;;25.20;99.90;;;;;;5052201;28;20309;-83
2022/06/29 05:24:13;;;;;;;6.57;5.88;;;25.20;99.90;;;;;;5052934;28;20233;-83
2022/06/29 05:26:42;;;;;;;5.60;5.18;;;25.20;99.90;;;;;;5052857;28;20206;-83
2022/06/29 05:29:10;;;;;;;8.13;6.38;;;25.20;99.90;;;;;;5052521;28;20210;-83
2022/06/29 05:31:38;;;;;;;6.55;5.95;;;25.20;99.90;;;;;;5052330;28;20248;-83
2022/06/29 05:34:07;;;;;;;5.75;5.35;;;25.30;99.90;;;;;;5052449;28;20225;-83
2022/06/29 05:36:37;;;;;;;6.82;6.15;;;25.40;99.90;;;;;;5052377;28;20229;-83
2022/06/29 05:39:05;;;;;;;5.82;5.30;;;25.50;99.90;;;;;;5052646;28;20220;-83
2022/06/29 05:41:33;;;;;;;6.25;5.72;;;25.70;99.90;;;;;;5051951;28;20316;-83
2022/06/29 05:44:04;;;;;;;6.82;6.13;;;25.70;99.90;;;;;;5052480;28;20229;-83
2022/06/29 05:46:32;;;;;;;6.47;5.97;;;25.70;99.90;;;;;;5052555;28;20244;-83
2022/06/29 05:49:01;;;;;;;7.45;5.88;;;25.90;99.90;;;;;;5052590;28;20225;-83
2022/06/29 05:51:29;;;;;;;7.47;5.38;;;25.90;99.90;;;;;;5052212;28;20202;-83
2022/06/29 05:53:59;;;;;;;5.72;5.30;;;26.00;99.90;;;;;;5052411;28;20300;-83
2022/06/29 05:56:27;;;;;;;9.27;6.13;;;26.00;99.90;;;;;;5052003;28;20266;-83
2022/06/29 05:58:55;;;;;;;7.10;6.40;;;26.20;99.90;;;;;;5052510;28;20248;-83
2022/06/29 06:01:24;;;;;;;8.75;5.97;;;26.40;99.90;;;;;;5051987;28;20281;-83
2022/06/29 06:03:52;;;;;;;7.63;6.15;;;26.40;99.90;;;;;;5052313;28;20275;-83
2022/06/29 06:06:21;;;;;;;7.20;6.60;;;26.40;99.90;;;;;;5052602;28;20206;-83
2022/06/29 06:08:49;;;;;;;7.88;6.50;;;26.40;99.90;;;;;;5052342;28;20528;-83
2022/06/29 06:11:19;;;;;;;7.80;6.85;;;26.30;99.90;;;;;;5052123;28;20202;-83
2022/06/29 06:13:47;;;;;;;7.20;6.60;;;26.30;99.90;;;;;;5052451;28;20232;-83
2022/06/29 06:16:15;;;;;;;9.02;8.27;;;26.30;99.90;;;;;;5051809;28;20209;-83
2022/06/29 06:19:03;;;;;;;8.70;8.00;;;26.30;99.90;;;;;;5054418;28;20206;-83
2022/06/29 06:21:32;;;;;;;9.30;8.40;;;26.30;99.90;;;;;;5055590;28;20245;-83
2022/06/29 06:24:00;;;;;;;10.68;9.68;;;26.30;99.90;;;;;;5055669;28;20232;-83
2022/06/29 06:26:31;;;;;;;11.52;10.35;;;26.30;99.90;;;;;;5055462;28;20262;-83
2022/06/29 06:28:59;;;;;;;11.93;10.50;;;26.30;99.90;;;;;;5056060;28;20222;-83
2022/06/29 06:31:28;;;;;;;13.57;9.00;;;26.30;99.90;;;;;;5055098;28;20205;-83
2022/06/29 06:33:56;;;;;;;9.52;8.63;;;26.10;99.90;;;;;;5055998;28;20221;-83
2022/06/29 06:36:25;;;;;;;10.32;9.38;;;26.00;99.90;;;;;;5055783;28;20205;-83
2022/06/29 06:38:53;;;;;;;9.45;8.55;;;25.90;99.90;;;;;;5055335;28;20294;-83
2022/06/29 06:41:23;;;;;;;8.23;7.43;;;26.00;99.90;;;;;;5055029;28;20309;-83
2022/06/29 06:43:54;;;;;;;8.55;7.55;;;26.00;99.90;;;;;;5055762;28;20281;-83
2022/06/29 06:46:23;;;;;;;8.55;7.78;;;26.10;99.90;;;;;;5055865;28;20293;-83
2022/06/29 06:48:53;;;;;;;20.33;7.90;;;26.20;99.90;;;;;;5055484;28;20206;-83
2022/06/29 06:51:22;;;;;;;8.68;7.97;;;26.50;99.90;;;;;;5055094;28;20229;-83
2022/06/29 06:53:51;;;;;;;9.55;6.90;;;26.50;99.90;;;;;;5055037;28;20268;-83
2022/06/29 06:56:19;;;;;;;8.07;7.30;;;26.60;99.90;;;;;;5055323;28;20269;-83
2022/06/29 06:58:48;;;;;;;7.88;7.05;;;26.80;99.90;;;;;;5055345;28;20209;-83
2022/06/29 07:01:23;;;;;;;9.55;6.90;;;27.00;99.90;;;;;;5055044;28;20275;-83
2022/06/29 07:03:52;;;;;;;7.68;6.97;;;27.20;99.90;;;;;;5054968;28;20255;-83
2022/06/29 07:06:20;;;;;;;7.05;6.45;;;27.50;99.90;;;;;;5055606;28;20236;-83
2022/06/29 07:08:49;;;;;;;25.50;7.22;;;27.80;99.90;;;;;;5055194;28;20230;-83
2022/06/29 07:11:18;;;;;;;7.88;6.10;;;27.90;99.90;;;;;;5054926;28;20209;-83
2022/06/29 07:13:46;;;;;;;6.20;5.72;;;27.90;99.90;;;;;;5054843;28;20312;-82
2022/06/29 07:16:14;;;;;;;8.40;7.53;;;27.80;99.90;;;;;;5054765;28;20276;-83
2022/06/29 07:18:44;;;;;;;7.15;6.55;;;28.10;99.90;;;;;;5055155;28;20209;-83
2022/06/29 07:21:13;;;;;;;9.52;6.22;;;28.50;99.90;;;;;;5054768;28;20224;-83
2022/06/29 07:23:41;;;;;;;6.00;5.50;;;29.00;99.90;;;;;;5054568;28;20309;-82
2022/06/29 07:26:09;;;;;;;6.75;5.93;;;29.80;99.90;;;;;;5054655;28;20285;-82
2022/06/29 07:28:39;;;;;;;5.68;5.18;;;30.80;99.90;;;;;;5054582;28;20212;-83
2022/06/29 07:31:08;;;;;;;6.57;5.72;;;31.30;99.90;;;;;;5054516;28;20205;-83
2022/06/29 07:33:36;;;;;;;7.07;5.28;;;32.00;99.90;;;;;;5054319;28;20234;-83
2022/06/29 07:36:07;;;;;;;5.30;4.90;;;32.60;99.90;;;;;;5054489;28;20305;-83
2022/06/29 07:38:35;;;;;;;5.22;4.72;;;32.90;99.90;;;;;;5054593;28;20209;-83
2022/06/29 07:41:04;;;;;;;4.82;4.40;;;33.30;99.90;;;;;;5054248;28;20241;-83
2022/06/29 07:43:32;;;;;;;6.50;4.07;;;34.30;99.90;;;;;;5054422;28;20241;-82
2022/06/29 07:46:02;;;;;;;4.97;4.53;;;34.80;99.90;;;;;;5054257;28;20225;-83
2022/06/29 07:48:30;;;;;;;6.40;5.10;;;35.00;98.80;;;;;;5054201;28;20225;-83
2022/06/29 07:50:58;;;;;;;5.30;4.78;;;35.00;98.90;;;;;;5054531;28;20292;-83
2022/06/29 07:53:28;;;;;;;5.22;4.82;;;35.20;97.80;;;;;;5054105;28;20235;-83
2022/06/29 07:55:57;;;;;;;4.75;4.35;;;35.60;96.70;;;;;;5054413;28;20213;-83
2022/06/29 07:58:26;;;;;;;5.53;4.50;;;36.10;97.10;;;;;;5054004;28;20297;-83
2022/06/29 08:00:54;;;;;;;4.50;4.10;;;36.90;94.80;;;;;;5054095;28;20289;-83
2022/06/29 08:03:23;;;;;;;5.93;4.18;;;;;;;;;;5054011;28;20237;-83
2022/06/29 08:05:51;;;;;;;5.88;4.20;;;37.80;93.40;;;;;;5053793;28;20209;-83
2022/06/29 08:08:20;;;;;;;7.28;3.85;;;39.30;90.00;;;;;;5054267;28;20205;-83
2022/06/29 08:10:49;;;;;;;3.90;3.38;;;39.50;88.50;;;;;;5054083;28;20236;-83
2022/06/29 08:13:17;;;;;;;4.03;3.63;;;39.70;85.40;;;;;;5053925;28;20231;-83
2022/06/29 08:15:47;;;;;;;5.25;4.65;;;40.00;83.60;;;;;;5053289;28;20236;-83
2022/06/29 08:18:15;;;;;;;5.65;4.05;;;40.00;83.60;;;;;;5053837;28;20209;-83
2022/06/29 08:20:44;;;;;;;4.30;3.90;;;39.80;80.70;;;;;;5052876;28;20235;-83
2022/06/29 08:23:13;;;;;;;4.53;4.18;;;39.70;83.30;;;;;;5051507;28;20291;-83
2022/06/29 08:25:41;;;;;;;5.30;4.50;;;39.80;79.80;;;;;;5051176;28;20217;-83
2022/06/29 08:28:31;;;;;;;5.57;5.07;;;39.50;78.80;;;;;;5053415;28;20205;-83
2022/06/29 08:30:59;;;;;;;5.55;4.32;;;39.80;78.90;;;;;;5053671;28;20205;-83
2022/06/29 08:33:28;;;;;;;4.70;3.95;;;39.60;80.60;;;;;;5053526;28;20221;-83
2022/06/29 08:35:56;;;;;;;4.80;4.20;;;39.90;77.70;;;;;;5053248;28;20268;-83
2022/06/29 08:38:24;;;;;;;9.55;4.30;;;40.00;77.60;;;;;;5053291;28;20284;-83
2022/06/29 08:40:54;;;;;;;5.45;4.03;;;39.70;76.40;;;;;;5052467;28;20240;-83
2022/06/29 08:43:22;;;;;;;4.43;4.03;;;40.00;75.20;;;;;;5052877;28;20241;-83
2022/06/29 08:45:53;;;;;;;7.15;4.15;;;40.20;75.40;;;;;;5053148;28;20212;-83
2022/06/29 08:48:22;;;;;;;5.38;4.15;;;40.40;75.30;;;;;;5053134;28;20209;-83
2022/06/29 08:50:52;;;;;;;7.78;4.40;;;40.30;74.80;;;;;;5052858;28;20292;-83
2022/06/29 08:53:23;;;;;;;4.30;3.92;;;40.20;74.00;;;;;;5053142;28;20226;-83
2022/06/29 08:55:55;;;;;;;7.43;4.30;;;40.40;75.10;;;;;;5053080;28;20224;-83
2022/06/29 08:58:24;;;;;;;4.45;4.05;;;40.80;72.30;;;;;;5053061;28;20205;-83
2022/06/29 09:00:54;;;;;;;4.28;3.72;;;40.20;71.30;;;;;;5052898;28;20272;-83
2022/06/29 09:03:24;;;;;;;4.63;4.15;;;39.80;72.50;;;;;;5052788;28;20231;-83
2022/06/29 09:05:55;;;;;;;5.20;4.18;;;38.90;72.60;;;;;;5052863;28;20280;-83
2022/06/29 09:08:23;;;;;;;4.68;4.28;;;38.30;73.70;;;;;;5053110;28;20240;-83
2022/06/29 09:10:52;;;;;;;4.90;4.32;;;37.60;74.80;;;;;;5052903;28;20297;-83
2022/06/29 09:13:21;;;;;;;8.10;4.75;;;36.30;76.20;;;;;;5052530;28;20281;-83
2022/06/29 09:15:58;;;;;;;4.70;4.38;;;35.90;78.60;;;;;;5052478;28;20270;-83
2022/06/29 09:18:28;;;;;;;4.60;4.20;;;35.60;78.70;;;;;;5052986;28;20243;-83
2022/06/29 09:20:58;;;;;;;4.60;4.25;;;35.20;80.00;;;;;;5052716;28;20255;-83
2022/06/29 09:23:27;;;;;;;5.22;4.72;;;34.90;81.40;;;;;;5052292;28;20225;-83
2022/06/29 09:25:55;;;;;;;5.03;4.53;;;34.80;82.90;;;;;;5052885;28;20296;-83
2022/06/29 09:28:25;;;;;;;7.43;5.00;;;35.60;83.20;;;;;;5052400;28;20233;-83
2022/06/29 09:30:56;;;;;;;4.15;3.80;;;36.50;78.50;;;;;;5052665;28;20213;-83
2022/06/29 09:33:28;;;;;;;4.55;4.05;;;37.10;79.60;;;;;;5052697;28;20219;-81
2022/06/29 09:36:08;;;;;;;5.50;5.07;;;37.90;75.70;;;;;;5052960;28;20274;-81
2022/06/29 09:38:38;;;;;;;4.32;4.03;;;38.20;75.50;;;;;;5052591;28;20209;-81
2022/06/29 09:41:08;;;;;;;4.55;4.15;;;38.10;74.20;;;;;;5052801;28;20212;-81
2022/06/29 09:43:39;;;;;;;4.57;4.22;;;37.30;75.20;;;;;;5052094;28;20282;-81
2022/06/29 09:46:08;;;;;;;4.88;4.25;;;37.10;76.00;;;;;;5052553;28;20213;-81
2022/06/29 09:48:39;;;;;;;5.65;4.78;;;36.90;77.60;;;;;;5052587;28;20215;-81
2022/06/29 09:53:55;;;;;;;4.47;4.07;;;38.20;78.10;;;;;;5053849;28;20308;-81
2022/06/29 09:56:25;;;;;;;3.90;3.58;;;39.30;72.50;;;;;;5056513;28;20236;-81
2022/06/29 09:58:56;;;;;;;4.60;4.10;;;39.90;73.30;;;;;;5056117;28;20296;-81
2022/06/29 10:04:13;;;;;;;4.80;4.40;;;40.50;70.30;;;;;;5056010;28;20249;-82
2022/06/29 10:06:43;;;;;;;6.63;4.53;;;40.90;69.40;;;;;;5056477;28;20209;-81
2022/06/29 10:09:11;;;;;;;3.83;3.53;;;41.40;68.30;;;;;;5056327;28;20205;-81
2022/06/29 10:15:00;;;;;;;4.18;3.88;;;42.50;68.60;;;;;;5055924;28;20296;-81
2022/06/29 10:17:42;;;;;;;4.25;3.42;;;42.90;65.90;;;;;;5055339;28;20201;-81
2022/06/29 10:20:24;;;;;;;3.47;3.17;;;43.20;65.60;;;;;;5055595;28;20280;-81
2022/06/29 10:22:52;;;;;;;4.85;4.38;;;43.60;64.60;;;;;;5055661;28;20320;-83
2022/06/29 10:25:27;;;;;;;11.70;4.15;;;43.10;62.20;;;;;;5055755;28;20209;-82
2022/06/29 10:28:16;;;;;;;3.58;3.33;;;42.80;62.60;;;;;;5056039;28;20211;-83
2022/06/29 10:30:45;;;;;;;5.43;4.40;;;42.50;60.60;;;;;;5055803;28;20237;-83
2022/06/29 10:33:40;;;;;;;4.07;3.67;;;42.20;62.50;;;;;;5057303;28;20225;-83
2022/06/29 10:36:24;;;;;;;4.95;3.85;;;42.20;63.10;;;;;;5056314;28;20209;-82
2022/06/29 10:39:15;;;;;;;6.07;3.88;;;41.80;63.20;;;;;;5055804;28;20204;-82
2022/06/29 10:44:56;;;;;;;4.75;3.65;;;41.80;61.00;;;;;;5055567;28;20221;-82
2022/06/29 10:47:33;;;;;;;5.80;4.43;;;41.00;61.60;;;;;;5055974;28;20288;-82
2022/06/29 10:50:23;;;;;;;3.22;2.97;;;40.70;61.40;;;;;;5055756;28;20205;-82
2022/06/29 10:52:59;;;;;;;3.40;3.10;;;40.50;62.50;;;;;;5055989;28;20225;-81
2022/06/29 10:55:29;;;;;;;3.50;3.20;;;40.80;63.40;;;;;;5055605;28;20233;-82
2022/06/29 10:57:59;;;;;;;4.72;3.78;;;41.20;64.00;;;;;;5055793;28;20236;-82
2022/06/29 11:00:39;;;;;;;3.55;3.33;;;41.10;64.10;;;;;;5056197;28;20205;-82
2022/06/29 11:03:11;;;;;;;4.18;3.78;;;41.20;64.20;;;;;;5055045;28;20243;-82
2022/06/29 11:14:04;;;;;;;4.30;3.90;;;40.20;63.80;;;;;;5055021;28;20241;-82
2022/06/29 11:16:37;;;;;;;4.85;4.07;;;39.50;64.10;;;;;;5054658;28;20293;-82
2022/06/29 11:19:05;;;;;;;4.22;3.85;;;38.90;66.40;;;;;;5055054;28;20243;-82
2022/06/29 11:21:34;;;;;;;4.55;3.97;;;38.40;65.00;;;;;;5054554;28;20241;-82
2022/06/29 11:24:05;;;;;;;6.22;3.53;;;38.30;66.50;;;;;;5054227;28;20225;-82
2022/06/29 11:26:35;;;;;;;3.72;3.42;;;38.20;65.40;;;;;;5054715;28;20268;-82
2022/06/29 11:29:04;;;;;;;4.32;3.90;;;37.90;66.00;;;;;;5054598;28;20209;-82
2022/06/29 11:31:32;;;;;;;5.38;3.50;;;37.40;66.60;;;;;;5054322;28;20209;-81
2022/06/29 11:34:01;;;;;;;6.30;3.83;;;37.00;66.00;;;;;;5055131;28;20300;-82
2022/06/29 11:36:31;;;;;;;4.13;3.72;;;36.70;66.80;;;;;;5054621;28;20204;-82
2022/06/29 11:39:07;;;;;;;5.90;4.05;;;36.60;67.60;;;;;;5054408;28;20300;-82
2022/06/29 11:44:27;;;;;;;3.67;3.17;;;35.70;67.10;;;;;;5054462;28;20316;-82
2022/06/29 11:46:56;;;;;;;3.85;3.42;;;35.50;69.00;;;;;;5054347;28;20279;-82
2022/06/29 11:49:38;;;;;;;3.75;3.40;;;35.30;68.20;;;;;;5054615;28;20240;-82
2022/06/29 11:52:08;;;;;;;3.90;3.55;;;35.20;68.90;;;;;;5054282;28;20229;-82
2022/06/29 11:54:40;;;;;;;3.65;3.35;;;35.20;70.70;;;;;;5054127;28;20197;-82
2022/06/29 11:57:11;;;;;;;6.40;3.92;;;35.70;69.20;;;;;;5054044;28;20212;-82
2022/06/29 11:59:41;;;;;;;4.53;3.47;;;35.70;67.60;;;;;;5053794;28;20224;-82
2022/06/29 12:02:10;;;;;;;3.95;3.58;;;35.80;68.60;;;;;;5053573;28;20294;-82
2022/06/29 12:04:41;;;;;;;19.23;3.42;;;35.70;68.50;;;;;;5053890;28;20233;-82
2022/06/29 12:07:10;;;;;;;5.07;3.45;;;35.60;67.90;;;;;;5054235;28;20300;-82
2022/06/29 12:09:42;;;;;;;3.40;3.15;;;35.40;67.70;;;;;;5054120;28;20319;-82
2022/06/29 12:12:12;;;;;;;3.80;3.22;;;35.30;68.20;;;;;;5053617;28;20300;-82
2022/06/29 12:14:41;;;;;;;6.50;3.55;;;35.40;67.40;;;;;;5053902;28;20248;-82
2022/06/29 12:17:11;;;;;;;7.35;3.28;;;35.40;66.40;;;;;;5052734;28;20240;-82
2022/06/29 12:19:39;;;;;;;3.90;3.15;;;35.40;66.10;;;;;;5053624;28;20209;-82
2022/06/29 12:22:08;;;;;;;3.65;3.22;;;35.60;66.30;;;;;;5053561;28;20305;-82
2022/06/29 12:24:37;;;;;;;4.07;3.40;;;35.70;66.30;;;;;;5053306;28;20263;-82
2022/06/29 12:27:06;;;;;;;4.57;3.00;;;36.00;66.60;;;;;;5053616;28;20220;-82
2022/06/29 12:29:35;;;;;;;4.50;3.53;;;36.60;65.70;;;;;;5053150;28;20236;-82
2022/06/29 12:32:03;;;;;;;4.80;3.88;;;37.30;65.20;;;;;;5053069;28;20225;-82
2022/06/29 12:34:31;;;;;;;4.45;3.63;;;37.50;63.20;;;;;;5053377;28;20270;-82
2022/06/29 12:37:03;;;;;;;3.92;3.22;;;37.60;62.90;;;;;;5053590;28;20215;-82
2022/06/29 12:39:31;;;;;;;7.18;3.65;;;37.70;64.90;;;;;;5053524;28;20278;-82
2022/06/29 12:42:00;;;;;;;7.65;3.15;;;37.80;63.30;;;;;;5052957;28;20210;-82
2022/06/29 12:44:30;;;;;;;3.45;3.08;;;37.80;62.10;;;;;;5053052;28;20276;-82
2022/06/29 12:46:58;;;;;;;3.90;3.50;;;37.70;61.20;;;;;;5053094;28;20255;-82
2022/06/29 12:49:26;;;;;;;4.18;3.13;;;37.90;63.90;;;;;;5053128;28;20335;-82
2022/06/29 12:51:54;;;;;;;3.13;2.75;;;38.20;61.20;;;;;;5053106;28;20205;-82
2022/06/29 12:54:23;;;;;;;2.97;2.78;;;38.30;61.20;;;;;;5053049;28;20224;-82
2022/06/29 12:56:51;;;;;;;3.05;2.85;;;38.30;61.30;;;;;;5053141;28;20205;-82
2022/06/29 12:59:19;;;;;;;3.20;2.90;;;38.00;61.10;;;;;;5052962;28;20252;-82
2022/06/29 13:01:50;;;;;;;6.15;2.90;;;37.90;61.50;;;;;;5052587;28;20231;-82
2022/06/29 13:04:20;;;;;;;5.03;3.20;;;37.90;61.00;;;;;;5035502;28;20271;-83
2022/06/29 13:06:50;;;;;;;3.40;3.00;;;38.00;61.10;;;;;;5053011;28;20209;-82
2022/06/29 13:09:18;;;;;;;3.83;2.85;;;37.70;59.30;;;;;;5053332;28;20289;-82
2022/06/29 13:11:46;;;;;;;4.43;2.97;;;37.60;59.10;;;;;;5052876;28;20201;-82
2022/06/29 13:14:16;;;;;;;2.78;2.58;;;37.40;59.50;;;;;;5053116;28;20221;-83
2022/06/29 13:16:44;;;;;;;2.97;2.78;;;37.30;59.80;;;;;;5052920;28;20205;-82
2022/06/29 13:19:14;;;;;;;3.88;2.63;;;37.20;59.60;;;;;;5052542;28;20209;-83
2022/06/29 13:21:43;;;;;;;2.55;2.42;;;37.20;59.80;;;;;;5052295;28;20220;-82
2022/06/29 13:24:11;;;;;;;3.25;2.80;;;37.00;60.20;;;;;;5052620;28;20304;-82